Time;durP1;ratioP1;P1;durP2;ratioP2;P2;SDS_P1;SDS_P2;PMS_P1;PMS_P2;Temp;Humidity;BMP_temperature;BMP_pressure;BME280_temperature;BME280_humidity;BME280_pressure;Samples;Min_cycle;Max_cycle;Signal;HPM_P1;HPM_P2
2022/12/20 00:00:33;;;;;;;68.77;28.93;;;;;;;;;;5051418;28;20595;-79
2022/12/20 00:03:00;;;;;;;61.67;27.53;;;;;;;;;;5051601;28;20685;-79
2022/12/20 00:05:27;;;;;;;66.60;27.60;;;;;;;;;;5051147;28;20737;-79
2022/12/20 00:07:54;;;;;;;55.93;26.17;;;;;;;;;;5051278;28;20732;-80
2022/12/20 00:10:21;;;;;;;59.20;27.10;;;;;;;;;;5051223;28;20291;-79
2022/12/20 00:12:49;;;;;;;60.13;27.07;;;;;;;;;;5051629;28;20201;-79
2022/12/20 00:15:16;;;;;;;67.83;29.93;;;;;;;;;;5051145;28;20208;-79
2022/12/20 00:17:43;;;;;;;68.70;27.43;;;;;;;;;;5051005;28;20244;-80
2022/12/20 00:20:11;;;;;;;61.20;27.70;;;;;;;;;;5051348;28;20232;-79
2022/12/20 00:22:38;;;;;;;69.37;28.90;;;;;;;;;;5051775;28;20213;-79
2022/12/20 00:25:06;;;;;;;57.83;26.87;;;;;;;;;;5051673;28;20232;-79
2022/12/20 00:27:33;;;;;;;56.70;27.13;;;;;;;;;;5051713;28;20224;-79
2022/12/20 00:30:01;;;;;;;63.53;27.67;;;;;;;;;;5051450;28;20210;-79
2022/12/20 00:32:28;;;;;;;65.50;28.97;;;;;;;;;;5051241;28;20678;-79
2022/12/20 00:34:55;;;;;;;62.20;28.37;;;;;;;;;;5051239;28;20689;-80
2022/12/20 00:37:22;;;;;;;60.20;28.57;;;;;;;;;;5050533;28;20705;-79
2022/12/20 00:39:49;;;;;;;59.67;26.97;;;;;;;;;;5051157;28;20665;-80
2022/12/20 00:42:17;;;;;;;62.73;27.53;;;;;;;;;;5050806;28;20232;-79
2022/12/20 00:44:44;;;;;;;60.27;27.23;;;;;;;;;;5051337;28;20225;-79
2022/12/20 00:47:12;;;;;;;65.23;27.50;;;;;;;;;;5050746;28;20244;-79
2022/12/20 00:49:39;;;;;;;57.37;26.87;;;;;;;;;;5051467;28;20212;-79
2022/12/20 00:52:06;;;;;;;55.90;26.77;;;;;;;;;;5049898;28;20245;-79
2022/12/20 00:54:33;;;;;;;58.00;25.80;;;;;;;;;;5051288;28;20197;-79
2022/12/20 00:57:00;;;;;;;61.30;27.47;;;;;;;;;;5050499;28;20263;-79
2022/12/20 00:59:27;;;;;;;66.40;28.23;;;;;;;;;;5051015;28;20206;-79
2022/12/20 01:01:55;;;;;;;58.07;28.83;;;;;;;;;;5050706;28;20244;-78
2022/12/20 01:04:23;;;;;;;58.80;27.40;;;;;;;;;;5051288;28;20724;-79
2022/12/20 01:06:50;;;;;;;57.93;27.50;;;;;;;;;;5053048;28;20241;-79
2022/12/20 01:09:17;;;;;;;60.83;27.27;;;;;;;;;;5054846;28;20236;-80
2022/12/20 01:11:44;;;;;;;64.70;27.50;;;;;;;;;;5054506;28;20243;-79
2022/12/20 01:14:13;;;;;;;56.90;28.07;;;;;;;;;;5055078;28;20209;-78
2022/12/20 01:16:41;;;;;;;61.53;29.13;;;;;;;;;;5054132;28;20719;-79
2022/12/20 01:19:09;;;;;;;73.90;32.07;;;;;;;;;;5054421;28;20210;-79
2022/12/20 01:21:38;;;;;;;63.80;28.77;;;;;;;;;;5054277;28;20237;-79
2022/12/20 01:24:05;;;;;;;65.53;28.87;;;;;;;;;;5054780;28;20245;-78
2022/12/20 01:26:32;;;;;;;59.83;27.30;;;;;;;;;;5054179;28;20236;-78
2022/12/20 01:29:00;;;;;;;54.37;26.37;;;;;;;;;;5054109;28;20228;-78
2022/12/20 01:31:28;;;;;;;60.00;25.97;;;;;;;;;;5054052;28;20240;-79
2022/12/20 01:33:55;;;;;;;63.70;27.67;;;;;;;;;;5054547;28;20607;-78
2022/12/20 01:36:24;;;;;;;61.53;26.23;;;;;;;;;;5053811;28;20237;-78
2022/12/20 01:38:55;;;;;;;64.13;27.70;;;;;;;;;;5054381;28;20226;-78
2022/12/20 01:41:23;;;;;;;56.80;27.33;;;;;;;;;;5053894;28;20245;-79
2022/12/20 01:43:52;;;;;;;63.87;28.97;;;;;;;;;;5054282;28;20298;-78
2022/12/20 01:46:20;;;;;;;58.80;26.13;;;;;;;;;;5053299;28;20241;-79
2022/12/20 01:48:50;;;;;;;57.83;26.87;;;;;;;;;;5053810;28;20732;-79
2022/12/20 01:51:18;;;;;;;66.23;27.97;;;;;;;;;;5053685;28;20259;-79
2022/12/20 01:53:45;;;;;;;59.80;28.00;;;;;;;;;;5054100;28;20670;-78
2022/12/20 01:56:14;;;;;;;61.07;26.20;;;;;;;;;;5053491;28;20247;-79
2022/12/20 01:58:42;;;;;;;58.47;27.33;;;;;;;;;;5053490;28;20237;-79
2022/12/20 02:01:09;;;;;;;59.57;26.53;;;;;;;;;;5050134;28;20237;-78
2022/12/20 02:03:38;;;;;;;66.77;29.30;;;;;;;;;;5034601;28;20580;-78
2022/12/20 02:06:23;;;;;;;63.17;28.53;;;;;;;;;;5053440;28;20484;-78
2022/12/20 02:08:51;;;;;;;63.33;27.77;;;;;;;;;;5046845;28;20571;-78
2022/12/20 02:11:25;;;;;;;65.60;27.67;;;;;;;;;;5034541;28;20246;-78
2022/12/20 02:13:57;;;;;;;59.33;28.07;;;;;;;;;;5053631;28;20182;-79
2022/12/20 02:16:26;;;;;;;66.33;28.30;;;;;;;;;;5053323;28;20244;-78
2022/12/20 02:18:55;;;;;;;59.03;25.60;;;;;;;;;;5052621;28;20245;-79
2022/12/20 02:21:25;;;;;;;66.13;27.43;;;;;;;;;;5053063;28;20234;-78
2022/12/20 02:24:13;;;;;;;71.03;28.23;;;;;;;;;;5053729;28;20209;-78
2022/12/20 02:27:00;;;;;;;65.13;28.13;;;;;;;;;;5052719;28;20241;-78
2022/12/20 02:29:34;;;;;;;62.43;26.03;;;;;;;;;;5053261;28;20198;-78
2022/12/20 02:32:05;;;;;;;54.47;24.63;;;;;;;;;;5033081;28;20343;-79
2022/12/20 02:34:33;;;;;;;62.37;23.60;;;;;;;;;;5033416;28;20675;-79
2022/12/20 02:37:00;;;;;;;55.83;24.80;;;;;;;;;;5032701;28;20250;-78
2022/12/20 02:39:29;;;;;;;67.83;27.93;;;;;;;;;;5042259;28;20204;-79
2022/12/20 02:41:58;;;;;;;72.90;26.63;;;;;;;;;;5052671;28;20327;-78
2022/12/20 02:47:14;;;;;;;53.67;25.80;;;;;;;;;;5052665;28;20250;-78
2022/12/20 02:49:43;;;;;;;58.47;26.87;;;;;;;;;;5052676;28;20589;-79
2022/12/20 02:52:11;;;;;;;54.97;25.07;;;;;;;;;;5052440;28;20237;-78
2022/12/20 02:54:38;;;;;;;46.63;24.73;;;;;;;;;;5053077;28;20211;-78
2022/12/20 02:57:10;;;;;;;58.37;25.97;;;;;;;;;;5052306;28;20710;-79
2022/12/20 02:59:40;;;;;;;58.93;26.37;;;;;;;;;;5052502;28;20194;-79
2022/12/20 03:02:07;;;;;;;57.37;26.90;;;;;;;;;;5052174;28;20245;-79
2022/12/20 03:04:38;;;;;;;60.30;26.73;;;;;;;;;;5053077;28;20202;-78
2022/12/20 03:07:06;;;;;;;50.53;24.27;;;;;;;;;;5052089;28;20233;-78
2022/12/20 03:09:34;;;;;;;52.70;26.17;;;;;;;;;;5052281;28;20209;-79
2022/12/20 03:12:02;;;;;;;57.33;25.77;;;;;;;;;;5051991;28;20705;-78
2022/12/20 03:14:29;;;;;;;61.90;27.13;;;;;;;;;;5052801;28;20305;-79
2022/12/20 03:16:56;;;;;;;54.80;26.07;;;;;;;;;;5051690;28;20238;-79
2022/12/20 03:19:23;;;;;;;63.77;28.37;;;;;;;;;;5077125;22;20620;-82
2022/12/20 03:21:51;;;;;;;62.77;28.27;;;;;;;;;;5049847;28;20238;-81
2022/12/20 03:24:19;;;;;;;66.70;29.23;;;;;;;;;;5051931;28;20209;-80
2022/12/20 03:26:46;;;;;;;63.67;26.73;;;;;;;;;;5051631;28;20243;-80
2022/12/20 03:29:13;;;;;;;64.77;28.07;;;;;;;;;;5051102;28;20236;-82
2022/12/20 03:31:40;;;;;;;63.17;26.33;;;;;;;;;;5051377;28;20233;-80
2022/12/20 03:34:07;;;;;;;56.10;26.73;;;;;;;;;;5051770;28;20197;-80
2022/12/20 03:36:34;;;;;;;60.83;25.90;;;;;;;;;;5051481;28;20233;-82
2022/12/20 03:39:02;;;;;;;67.87;27.07;;;;;;;;;;5051555;28;20716;-83
2022/12/20 03:41:30;;;;;;;59.70;25.60;;;;;;;;;;5051881;28;20245;-83
2022/12/20 03:43:57;;;;;;;59.87;27.40;;;;;;;;;;5051674;28;20209;-82
2022/12/20 03:46:24;;;;;;;62.37;26.47;;;;;;;;;;5051019;28;20247;-82
2022/12/20 03:48:51;;;;;;;66.37;27.70;;;;;;;;;;5051599;28;20230;-83
2022/12/20 03:51:18;;;;;;;63.47;27.87;;;;;;;;;;5051242;28;20233;-83
2022/12/20 03:53:45;;;;;;;62.57;27.23;;;;;;;;;;5051583;28;20202;-83
2022/12/20 03:56:14;;;;;;;55.60;26.97;;;;;;;;;;5051199;28;20241;-83
2022/12/20 03:58:41;;;;;;;61.47;27.77;;;;;;;;;;5051172;28;20233;-83
2022/12/20 04:01:17;;;;;;;58.73;27.67;;;;;;;;;;5050981;28;20236;-82
2022/12/20 04:03:44;;;;;;;59.43;25.77;;;;;;;;;;5051694;28;20581;-83
2022/12/20 04:06:11;;;;;;;60.90;26.23;;;;;;;;;;5051199;28;20237;-82
2022/12/20 04:08:38;;;;;;;54.37;25.13;;;;;;;;;;5050903;28;20226;-83
2022/12/20 04:11:18;;;;;;;52.13;23.57;;;;;;;;;;5051194;28;20233;-82
2022/12/20 04:13:47;;;;;;;58.57;25.60;;;;;;;;;;5031767;28;20297;-83
2022/12/20 04:16:14;;;;;;;73.00;26.77;;;;;;;;;;5045761;28;20713;-80
2022/12/20 04:18:41;;;;;;;74.07;27.77;;;;;;;;;;5050707;28;20233;-80
2022/12/20 04:21:09;;;;;;;68.27;29.03;;;;;;;;;;5050864;28;20599;-80
2022/12/20 04:23:37;;;;;;;71.30;29.30;;;;;;;;;;5051153;28;20566;-80
2022/12/20 04:26:04;;;;;;;67.63;28.13;;;;;;;;;;5050770;28;20244;-81
2022/12/20 04:28:32;;;;;;;77.20;27.63;;;;;;;;;;5051160;28;20232;-80
2022/12/20 04:31:00;;;;;;;69.53;28.27;;;;;;;;;;5050412;28;20230;-81
2022/12/20 04:33:28;;;;;;;72.03;30.43;;;;;;;;;;5051204;28;20217;-80
2022/12/20 04:35:55;;;;;;;65.30;29.07;;;;;;;;;;5049261;28;20244;-82
2022/12/20 04:38:22;;;;;;;70.43;26.30;;;;;;;;;;5031066;28;20729;-83
2022/12/20 04:40:50;;;;;;;70.37;29.03;;;;;;;;;;5031715;28;20823;-83
2022/12/20 04:43:17;;;;;;;65.30;27.13;;;;;;;;;;5035735;28;20206;-83
2022/12/20 04:45:45;;;;;;;66.53;28.83;;;;;;;;;;5034878;28;20237;-83
2022/12/20 04:48:13;;;;;;;59.30;25.90;;;;;;;;;;5051372;28;20572;-83
2022/12/20 04:50:40;;;;;;;65.83;29.07;;;;;;;;;;5054929;28;20232;-83
2022/12/20 04:55:52;;;;;;;60.60;25.83;;;;;;;;;;5054873;28;20708;-82
2022/12/20 04:58:19;;;;;;;63.23;28.13;;;;;;;;;;5054650;28;20222;-83
2022/12/20 05:00:46;;;;;;;68.40;28.67;;;;;;;;;;5055180;28;20237;-80
2022/12/20 05:03:14;;;;;;;67.23;30.77;;;;;;;;;;5056743;28;20202;-82
2022/12/20 05:05:41;;;;;;;74.10;30.07;;;;;;;;;;5055516;28;20245;-81
2022/12/20 05:08:08;;;;;;;65.73;31.90;;;;;;;;;;5059321;28;20639;-82
2022/12/20 05:10:35;;;;;;;75.90;36.67;;;;;;;;;;5054135;28;20240;-81
2022/12/20 05:13:02;;;;;;;77.40;34.70;;;;;;;;;;5055109;28;20209;-81
2022/12/20 05:15:29;;;;;;;86.17;37.83;;;;;;;;;;5054217;28;20607;-82
2022/12/20 05:17:58;;;;;;;80.37;32.27;;;;;;;;;;5054149;28;20241;-83
2022/12/20 05:20:26;;;;;;;76.90;33.43;;;;;;;;;;5052799;28;20232;-81
2022/12/20 05:28:24;;;;;;;77.40;30.73;;;;;;;;;;5034578;28;20240;-80
2022/12/20 05:30:51;;;;;;;75.40;30.63;;;;;;;;;;5034862;28;20239;-83
2022/12/20 05:33:18;;;;;;;79.60;31.27;;;;;;;;;;5034569;28;20206;-82
2022/12/20 05:35:46;;;;;;;75.47;31.40;;;;;;;;;;5034639;28;20226;-82
2022/12/20 05:38:14;;;;;;;76.73;34.23;;;;;;;;;;5034821;28;20661;-81
2022/12/20 05:40:42;;;;;;;77.10;31.67;;;;;;;;;;5038581;28;20233;-81
2022/12/20 05:43:09;;;;;;;72.63;30.20;;;;;;;;;;5054956;28;20207;-81
2022/12/20 05:45:37;;;;;;;72.37;29.60;;;;;;;;;;5054300;28;20234;-80
2022/12/20 05:48:04;;;;;;;69.30;28.60;;;;;;;;;;5056493;28;20249;-81
2022/12/20 05:50:31;;;;;;;71.50;29.10;;;;;;;;;;5054945;28;20241;-81
2022/12/20 05:52:59;;;;;;;76.47;30.03;;;;;;;;;;5055010;28;20576;-81
2022/12/20 05:55:26;;;;;;;74.13;28.77;;;;;;;;;;5053101;28;20233;-81
2022/12/20 05:57:54;;;;;;;73.37;29.03;;;;;;;;;;5053710;28;20222;-81
2022/12/20 06:00:21;;;;;;;63.97;29.73;;;;;;;;;;5053276;28;20216;-81
2022/12/20 06:02:48;;;;;;;82.80;30.50;;;;;;;;;;5053873;28;20210;-81
2022/12/20 06:05:15;;;;;;;82.13;31.43;;;;;;;;;;5053587;28;20301;-81
2022/12/20 06:07:42;;;;;;;72.97;29.27;;;;;;;;;;5053479;28;20237;-81
2022/12/20 06:10:12;;;;;;;73.77;31.40;;;;;;;;;;5053719;28;20210;-81
2022/12/20 06:12:39;;;;;;;68.77;28.30;;;;;;;;;;5054016;28;20216;-80
2022/12/20 06:15:08;;;;;;;68.87;29.43;;;;;;;;;;5053363;28;20212;-80
2022/12/20 06:17:35;;;;;;;81.70;30.50;;;;;;;;;;5053639;28;20202;-80
2022/12/20 06:20:02;;;;;;;69.07;28.23;;;;;;;;;;5054796;28;20243;-78
2022/12/20 06:22:30;;;;;;;80.43;32.53;;;;;;;;;;5053737;28;20228;-80
2022/12/20 06:24:57;;;;;;;76.70;29.50;;;;;;;;;;5053588;28;20216;-80
2022/12/20 06:27:25;;;;;;;76.93;29.20;;;;;;;;;;5052491;28;20234;-78
2022/12/20 06:29:53;;;;;;;80.70;28.97;;;;;;;;;;5053571;28;20214;-79
2022/12/20 06:32:20;;;;;;;79.30;30.17;;;;;;;;;;5052731;28;20252;-79
2022/12/20 06:34:47;;;;;;;68.97;29.17;;;;;;;;;;5053284;28;20209;-79
2022/12/20 06:37:14;;;;;;;73.73;29.40;;;;;;;;;;5043289;28;20238;-79
2022/12/20 06:39:41;;;;;;;80.97;30.03;;;;;;;;;;5032862;28;20981;-79
2022/12/20 06:42:08;;;;;;;88.47;30.43;;;;;;;;;;5032599;28;20234;-79
2022/12/20 06:44:37;;;;;;;71.33;28.43;;;;;;;;;;5033688;28;20210;-79
2022/12/20 06:47:04;;;;;;;84.33;29.83;;;;;;;;;;5032915;28;20242;-79
2022/12/20 06:49:31;;;;;;;69.43;29.93;;;;;;;;;;5043659;28;20234;-79
2022/12/20 06:51:59;;;;;;;75.67;29.53;;;;;;;;;;5044447;28;20237;-79
2022/12/20 06:54:26;;;;;;;80.70;29.93;;;;;;;;;;5043549;28;20198;-79
2022/12/20 06:56:53;;;;;;;81.97;30.80;;;;;;;;;;5031899;28;20238;-79
2022/12/20 06:59:20;;;;;;;77.93;30.13;;;;;;;;;;5032128;28;20238;-79
2022/12/20 07:01:49;;;;;;;74.63;31.10;;;;;;;;;;5031824;28;20605;-79
2022/12/20 07:04:16;;;;;;;81.97;30.30;;;;;;;;;;5032164;28;20209;-79
2022/12/20 07:06:43;;;;;;;74.77;29.13;;;;;;;;;;5031359;28;20239;-79
2022/12/20 07:09:10;;;;;;;72.63;29.47;;;;;;;;;;5031529;28;20776;-79
2022/12/20 07:11:38;;;;;;;62.90;28.57;;;;;;;;;;5031598;28;20265;-79
2022/12/20 07:14:05;;;;;;;70.20;29.63;;;;;;;;;;5031840;28;20210;-79
2022/12/20 07:16:32;;;;;;;79.17;29.97;;;;;;;;;;5031398;28;20227;-79
2022/12/20 07:19:00;;;;;;;78.33;30.23;;;;;;;;;;5031426;28;20252;-79
2022/12/20 07:21:28;;;;;;;86.67;32.37;;;;;;;;;;5031111;28;20717;-79
2022/12/20 07:23:55;;;;;;;73.60;31.70;;;;;;;;;;5031785;28;20218;-79
2022/12/20 07:26:22;;;;;;;77.20;31.07;;;;;;;;;;5031119;28;20231;-79
2022/12/20 07:28:50;;;;;;;72.10;31.87;;;;;;;;;;5031963;28;20222;-80
2022/12/20 07:31:17;;;;;;;72.37;30.33;;;;;;;;;;5031053;28;20235;-79
2022/12/20 07:33:44;;;;;;;84.23;30.17;;;;;;;;;;5031775;28;20214;-79
2022/12/20 07:36:13;;;;;;;84.60;32.27;;;;;;;;;;5030989;28;20732;-79
2022/12/20 07:38:40;;;;;;;73.30;29.07;;;;;;;;;;5031146;28;20278;-79
2022/12/20 07:41:08;;;;;;;75.03;31.27;;;;;;;;;;5031183;28;20234;-79
2022/12/20 07:43:35;;;;;;;85.97;32.10;;;;;;;;;;5042735;28;20246;-79
2022/12/20 07:46:02;;;;;;;66.97;30.33;;;;;;;;;;5049060;28;20237;-79
2022/12/20 07:48:30;;;;;;;73.03;29.87;;;;;;;;;;5048747;28;20229;-79
2022/12/20 07:50:59;;;;;;;83.27;31.17;;;;;;;;;;5031046;28;20257;-79
2022/12/20 07:53:29;;;;;;;74.00;31.93;;;;;;;;;;5031353;28;20740;-80
2022/12/20 07:55:57;;;;;;;81.67;30.70;;;;;;;;;;5030663;28;20230;-80
2022/12/20 07:58:24;;;;;;;71.37;29.73;;;;;;;;;;5031214;28;20655;-80
2022/12/20 08:00:51;;;;;;;72.70;30.00;;;;;;;;;;5030549;28;20245;-79
2022/12/20 08:03:20;;;;;;;82.50;31.77;;;;;;;;;;5031341;28;20581;-79
2022/12/20 08:05:47;;;;;;;79.90;32.00;;;;;;;;;;5030697;28;20257;-79
2022/12/20 08:08:15;;;;;;;78.17;31.20;;;;;;;;;;5030788;28;20242;-80
2022/12/20 08:10:44;;;;;;;79.93;32.33;;;;;;;;;;5030680;28;20245;-79
2022/12/20 08:13:11;;;;;;;68.53;28.50;;;;;;;;;;5031243;28;20202;-80
2022/12/20 08:15:38;;;;;;;73.60;31.17;;;;;;;;;;5029956;28;20242;-80
2022/12/20 08:18:06;;;;;;;70.83;30.50;;;;;;;;;;5030615;28;20229;-80
2022/12/20 08:20:33;;;;;;;82.13;30.23;;;;;;;;;;5030896;28;20233;-80
2022/12/20 08:23:00;;;;;;;87.40;30.20;;;;;;;;;;5031100;28;20240;-79
2022/12/20 08:25:27;;;;;;;82.03;28.83;;;;;;;;;;5030284;28;20278;-79
2022/12/20 08:27:55;;;;;;;74.03;29.13;;;;;;;;;;5030703;28;20231;-79
2022/12/20 08:30:22;;;;;;;74.90;31.20;;;;;;;;;;5030343;28;20242;-79
2022/12/20 08:32:49;;;;;;;74.20;30.50;;;;;;;;;;5031248;28;20211;-79
2022/12/20 08:35:17;;;;;;;77.57;30.57;;;;;;;;;;5030388;28;20211;-79
2022/12/20 08:37:44;;;;;;;78.10;33.33;;;;;;;;;;5030409;28;20213;-79
2022/12/20 08:40:12;;;;;;;76.23;31.00;;;;;;;;;;5030469;28;20210;-79
2022/12/20 08:42:40;;;;;;;68.27;31.67;;;;;;;;;;5034496;28;20236;-79
2022/12/20 08:45:09;;;;;;;80.73;30.70;;;;;;;;;;5050457;28;20210;-79
2022/12/20 08:47:36;;;;;;;83.23;32.93;;;;;;;;;;5050282;28;20937;-80
2022/12/20 08:50:03;;;;;;;79.63;32.33;;;;;;;;;;5042090;28;20211;-80
2022/12/20 08:52:30;;;;;;;80.87;31.77;;;;;;;;;;5048879;28;20206;-81
2022/12/20 08:54:57;;;;;;;77.13;29.33;;;;;;;;;;5051174;28;20213;-80
2022/12/20 08:57:24;;;;;;;80.30;29.57;;;;;;;;;;5049960;28;20236;-80
2022/12/20 08:59:51;;;;;;;72.47;27.83;;;;;;;;;;5050584;28;20216;-80
2022/12/20 09:02:20;;;;;;;79.43;27.63;;;;;;;;;;5050080;28;20234;-80
2022/12/20 09:04:47;;;;;;;74.03;30.50;;;;;;;;;;5050505;28;20210;-80
2022/12/20 09:07:14;;;;;;;85.43;30.60;;;;;;;;;;5050012;28;20230;-80
2022/12/20 09:09:41;;;;;;;73.83;29.10;;;;;;;;;;5050180;28;20230;-80
2022/12/20 09:12:08;;;;;;;71.00;30.37;;;;;;;;;;5050034;28;20237;-79
2022/12/20 09:14:35;;;;;;;81.37;29.70;;;;;;;;;;5050333;28;20210;-79
2022/12/20 09:17:02;;;;;;;71.17;30.07;;;;;;;;;;5050079;28;20230;-79
2022/12/20 09:19:31;;;;;;;101.50;34.37;;;;;;;;;;5072348;22;20728;-79
2022/12/20 09:21:58;;;;;;;87.67;32.43;;;;;;;;;;5043891;28;20237;-78
2022/12/20 09:24:25;;;;;;;92.27;34.20;;;;;;;;;;5050613;28;20388;-79
2022/12/20 09:26:52;;;;;;;93.70;34.53;;;;;;;;;;5049759;28;20240;-79
2022/12/20 09:29:19;;;;;;;97.63;33.57;;;;;;;;;;5053027;28;20226;-78
2022/12/20 09:31:46;;;;;;;96.83;34.50;;;;;;;;;;5067655;28;20240;-78
2022/12/20 09:34:14;;;;;;;98.73;32.50;;;;;;;;;;5074016;28;20217;-78
2022/12/20 09:36:42;;;;;;;106.33;35.80;;;;;;;;;;5073050;28;20295;-78
2022/12/20 09:39:09;;;;;;;93.90;34.87;;;;;;;;;;5073182;28;20228;-78
2022/12/20 09:41:38;;;;;;;114.43;36.20;;;;;;;;;;5072997;28;20873;-78
2022/12/20 09:44:11;;;;;;;97.63;35.63;;;;;;;;;;5053289;28;20203;-78
2022/12/20 09:46:39;;;;;;;99.63;34.20;;;;;;;;;;5052287;28;20225;-78
2022/12/20 09:49:06;;;;;;;97.07;34.47;;;;;;;;;;5053369;28;20238;-78
2022/12/20 09:51:39;;;;;;;92.80;37.53;;;;;;;;;;5053258;28;20238;-78
2022/12/20 09:54:16;;;;;;;108.47;39.70;;;;;;;;;;5054017;28;20201;-78
2022/12/20 09:56:45;;;;;;;109.93;41.10;;;;;;;;;;5053091;28;20233;-78
2022/12/20 09:59:13;;;;;;;94.07;38.67;;;;;;;;;;5052845;28;20230;-78
2022/12/20 10:01:44;;;;;;;102.80;39.27;;;;;;;;;;5052633;28;20717;-78
2022/12/20 10:04:16;;;;;;;108.93;39.17;;;;;;;;;;5052194;28;20604;-78
2022/12/20 10:06:48;;;;;;;115.80;41.50;;;;;;;;;;5044528;28;20229;-78
2022/12/20 10:09:23;;;;;;;104.03;41.30;;;;;;;;;;5052592;28;20713;-78
2022/12/20 10:11:58;;;;;;;106.00;42.43;;;;;;;;;;5033072;28;20245;-78
2022/12/20 10:14:36;;;;;;;113.20;43.37;;;;;;;;;;5033153;28;20213;-78
2022/12/20 10:17:05;;;;;;;120.63;43.00;;;;;;;;;;5032856;28;20241;-78
2022/12/20 10:19:56;;;;;;;118.63;43.97;;;;;;;;;;5032685;28;20235;-78
2022/12/20 10:22:25;;;;;;;109.10;42.20;;;;;;;;;;5032575;28;20234;-78
2022/12/20 10:24:58;;;;;;;112.17;44.83;;;;;;;;;;5033154;28;20218;-78
2022/12/20 10:27:26;;;;;;;129.30;44.77;;;;;;;;;;5034635;28;20230;-78
2022/12/20 10:29:53;;;;;;;110.43;42.00;;;;;;;;;;5052522;28;20237;-79
2022/12/20 10:32:21;;;;;;;103.47;41.83;;;;;;;;;;5052137;28;20234;-78
2022/12/20 10:34:52;;;;;;;109.80;41.33;;;;;;;;;;5052885;28;20210;-78
2022/12/20 10:37:19;;;;;;;102.87;40.60;;;;;;;;;;5051999;28;20233;-79
2022/12/20 10:39:48;;;;;;;107.07;42.63;;;;;;;;;;5052312;28;20230;-78
2022/12/20 10:42:27;;;;;;;108.73;41.13;;;;;;;;;;5052302;28;20263;-78
2022/12/20 10:44:55;;;;;;;98.53;38.33;;;;;;;;;;5052624;28;20586;-78
2022/12/20 10:47:29;;;;;;;108.13;40.90;;;;;;;;;;5051705;28;20234;-78
2022/12/20 10:50:08;;;;;;;105.23;41.43;;;;;;;;;;5052287;28;20292;-78
2022/12/20 10:52:35;;;;;;;95.40;39.67;;;;;;;;;;5052250;28;20221;-78
2022/12/20 10:55:02;;;;;;;113.30;41.40;;;;;;;;;;5052638;28;20210;-78
2022/12/20 10:57:32;;;;;;;110.37;37.90;;;;;;;;;;5052405;28;20222;-79
2022/12/20 11:00:00;;;;;;;99.00;38.27;;;;;;;;;;5052180;28;20309;-79
2022/12/20 11:02:28;;;;;;;103.57;38.70;;;;;;;;;;5051699;28;20256;-78
2022/12/20 11:04:59;;;;;;;115.63;38.67;;;;;;;;;;5052300;28;20293;-78
2022/12/20 11:07:28;;;;;;;100.80;37.50;;;;;;;;;;5051128;28;20235;-78
2022/12/20 11:09:56;;;;;;;102.63;36.63;;;;;;;;;;5045211;28;20226;-78
2022/12/20 11:12:23;;;;;;;93.17;34.33;;;;;;;;;;5050607;28;20235;-79
2022/12/20 11:15:07;;;;;;;96.17;36.73;;;;;;;;;;5052042;28;20225;-78
2022/12/20 11:17:42;;;;;;;95.17;37.00;;;;;;;;;;5050185;28;20227;-78
2022/12/20 11:20:22;;;;;;;96.50;34.63;;;;;;;;;;5051585;28;20386;-78
2022/12/20 11:22:52;;;;;;;86.23;35.37;;;;;;;;;;5051859;28;20187;-79
2022/12/20 11:25:34;;;;;;;95.97;34.67;;;;;;;;;;5051804;28;20677;-79
2022/12/20 11:28:09;;;;;;;89.63;36.77;;;;;;;;;;5048504;28;20237;-79
2022/12/20 11:30:43;;;;;;;94.37;37.17;;;;;;;;;;5051102;28;20235;-78
2022/12/20 11:33:21;;;;;;;96.03;37.67;;;;;;;;;;5051793;28;20194;-79
2022/12/20 11:35:53;;;;;;;112.57;38.73;;;;;;;;;;5051215;28;20230;-79
2022/12/20 11:38:27;;;;;;;95.93;39.37;;;;;;;;;;5051196;28;20233;-79
2022/12/20 11:40:56;;;;;;;95.90;37.63;;;;;;;;;;5050976;28;20242;-79
2022/12/20 11:43:28;;;;;;;94.80;37.33;;;;;;;;;;5051555;28;20289;-79
2022/12/20 11:46:05;;;;;;;97.83;38.87;;;;;;;;;;5051189;28;20275;-79
2022/12/20 11:48:45;;;;;;;103.60;38.50;;;;;;;;;;5050928;28;20234;-79
2022/12/20 11:51:17;;;;;;;93.67;35.97;;;;;;;;;;5050402;28;20242;-79
2022/12/20 11:53:46;;;;;;;96.10;37.60;;;;;;;;;;5051690;28;20297;-79
2022/12/20 11:56:17;;;;;;;92.70;38.90;;;;;;;;;;5051172;28;20295;-79
2022/12/20 11:58:48;;;;;;;86.03;37.20;;;;;;;;;;5051042;28;20237;-80
2022/12/20 12:01:17;;;;;;;94.77;38.20;;;;;;;;;;5051096;28;20244;-79
2022/12/20 12:03:47;;;;;;;105.20;39.10;;;;;;;;;;5051048;28;20217;-79
2022/12/20 12:06:18;;;;;;;94.40;38.50;;;;;;;;;;5050399;28;20228;-79
2022/12/20 12:08:48;;;;;;;93.10;38.97;;;;;;;;;;5030785;28;20236;-79
2022/12/20 12:11:18;;;;;;;93.67;38.80;;;;;;;;;;5031145;28;20236;-79
2022/12/20 12:13:45;;;;;;;109.10;41.50;;;;;;;;;;5032674;28;20208;-79
2022/12/20 12:16:17;;;;;;;100.07;41.53;;;;;;;;;;5046731;28;20457;-79
2022/12/20 12:18:45;;;;;;;99.40;41.67;;;;;;;;;;5043225;28;20802;-79
2022/12/20 12:21:18;;;;;;;99.17;40.63;;;;;;;;;;5050569;28;20241;-79
2022/12/20 12:23:48;;;;;;;92.23;40.70;;;;;;;;;;5050405;28;20316;-79
2022/12/20 12:26:19;;;;;;;94.53;39.17;;;;;;;;;;5050535;28;20241;-79
2022/12/20 12:28:49;;;;;;;92.77;39.33;;;;;;;;;;5050820;28;20229;-79
2022/12/20 12:31:19;;;;;;;92.77;39.37;;;;;;;;;;5050343;28;20248;-80
2022/12/20 12:33:50;;;;;;;93.13;40.07;;;;;;;;;;5050948;28;20212;-79
2022/12/20 12:36:27;;;;;;;88.53;38.60;;;;;;;;;;5050481;28;20245;-79
2022/12/20 12:39:06;;;;;;;90.70;39.80;;;;;;;;;;5045891;28;20229;-80
2022/12/20 12:41:48;;;;;;;101.17;40.27;;;;;;;;;;5050478;28;20234;-79
2022/12/20 12:44:28;;;;;;;98.87;38.30;;;;;;;;;;5051211;28;20198;-79
2022/12/20 12:46:59;;;;;;;100.57;40.33;;;;;;;;;;5049065;28;20587;-79
2022/12/20 12:49:28;;;;;;;90.97;38.73;;;;;;;;;;5050141;28;20233;-79
2022/12/20 12:51:57;;;;;;;98.37;38.73;;;;;;;;;;5050642;28;20237;-79
2022/12/20 12:54:25;;;;;;;91.77;39.60;;;;;;;;;;5050636;28;20209;-79
2022/12/20 12:56:54;;;;;;;87.50;38.00;;;;;;;;;;5050097;28;20316;-80
2022/12/20 12:59:24;;;;;;;95.00;40.73;;;;;;;;;;5050588;28;20603;-80
2022/12/20 13:01:52;;;;;;;96.47;40.97;;;;;;;;;;5050861;28;20794;-79
2022/12/20 13:04:29;;;;;;;103.87;43.77;;;;;;;;;;5054743;28;20213;-79
2022/12/20 13:06:57;;;;;;;95.67;43.70;;;;;;;;;;5053984;28;20237;-79
2022/12/20 13:09:37;;;;;;;99.80;44.27;;;;;;;;;;5053748;28;20245;-81
2022/12/20 13:12:19;;;;;;;89.10;42.57;;;;;;;;;;5053782;28;20234;-81
2022/12/20 13:14:50;;;;;;;90.30;42.60;;;;;;;;;;5053680;28;20206;-81
2022/12/20 13:17:35;;;;;;;103.10;43.23;;;;;;;;;;5053705;28;20264;-81
2022/12/20 13:20:16;;;;;;;97.87;43.63;;;;;;;;;;5054062;28;20237;-81
2022/12/20 13:23:06;;;;;;;93.33;42.50;;;;;;;;;;5054073;28;20218;-80
2022/12/20 13:25:34;;;;;;;84.67;41.53;;;;;;;;;;5053738;28;20257;-80
2022/12/20 13:28:16;;;;;;;92.10;43.67;;;;;;;;;;5054249;28;20230;-80
2022/12/20 13:30:43;;;;;;;83.30;38.97;;;;;;;;;;5052716;28;20732;-80
2022/12/20 13:33:21;;;;;;;87.30;39.73;;;;;;;;;;5054315;28;20213;-80
2022/12/20 13:35:57;;;;;;;95.60;40.27;;;;;;;;;;5053556;28;20607;-80
2022/12/20 13:38:48;;;;;;;93.17;38.70;;;;;;;;;;5053740;28;20229;-79
2022/12/20 13:41:21;;;;;;;93.90;41.03;;;;;;;;;;5033609;28;20629;-79
2022/12/20 13:43:49;;;;;;;82.27;37.37;;;;;;;;;;5054378;28;20206;-79
2022/12/20 13:46:21;;;;;;;80.13;35.40;;;;;;;;;;5053262;28;20265;-79
2022/12/20 13:48:51;;;;;;;76.93;34.90;;;;;;;;;;5053473;28;20699;-79
2022/12/20 13:51:21;;;;;;;81.40;36.67;;;;;;;;;;5053247;28;20295;-79
2022/12/20 13:53:52;;;;;;;81.93;35.57;;;;;;;;;;5053843;28;20194;-79
2022/12/20 13:56:32;;;;;;;82.30;38.10;;;;;;;;;;5053083;28;20230;-79
2022/12/20 13:59:00;;;;;;;79.80;35.63;;;;;;;;;;5052621;28;20244;-79
2022/12/20 14:01:27;;;;;;;75.47;36.20;;;;;;;;;;5052646;28;20225;-79
2022/12/20 14:03:55;;;;;;;80.67;37.60;;;;;;;;;;5053252;28;20206;-80
2022/12/20 14:06:24;;;;;;;83.97;38.33;;;;;;;;;;5052789;28;20260;-81
2022/12/20 14:08:52;;;;;;;74.47;36.13;;;;;;;;;;5053316;28;20237;-80
2022/12/20 14:11:21;;;;;;;74.57;35.47;;;;;;;;;;5052777;28;20234;-80
2022/12/20 14:13:52;;;;;;;73.57;33.37;;;;;;;;;;5052318;28;20237;-81
2022/12/20 14:16:20;;;;;;;71.43;33.53;;;;;;;;;;5052675;28;20645;-80
2022/12/20 14:18:50;;;;;;;70.33;32.30;;;;;;;;;;5052869;28;20230;-80
2022/12/20 14:21:18;;;;;;;68.77;33.20;;;;;;;;;;5052157;28;20256;-80
2022/12/20 14:23:49;;;;;;;65.10;31.17;;;;;;;;;;5051799;28;20584;-80
2022/12/20 14:26:17;;;;;;;65.37;33.00;;;;;;;;;;5052587;28;20283;-80
2022/12/20 14:28:46;;;;;;;65.60;32.60;;;;;;;;;;5052002;28;20230;-80
2022/12/20 14:31:24;;;;;;;63.80;32.13;;;;;;;;;;5052376;28;20234;-83
2022/12/20 14:33:51;;;;;;;64.73;30.70;;;;;;;;;;5052846;28;20209;-80
2022/12/20 14:36:19;;;;;;;67.37;30.30;;;;;;;;;;5051523;28;20245;-80
2022/12/20 14:38:48;;;;;;;65.63;30.97;;;;;;;;;;5052363;28;20226;-80